Time;durP1;ratioP1;P1;durP2;ratioP2;P2;SDS_P1;SDS_P2;PMS_P1;PMS_P2;Temp;Humidity;BMP_temperature;BMP_pressure;BME280_temperature;BME280_humidity;BME280_pressure;Samples;Min_cycle;Max_cycle;Signal;HPM_P1;HPM_P2
2022/03/09 00:02:06;;;;;;;69.75;40.95;;;;;;;;;;10302023;28;20073;-52
2022/03/09 00:07:04;;;;;;;29.42;22.42;;;;;;;;;;10269128;28;20072;-52
2022/03/09 00:12:04;;;;;;;29.38;22.55;;;;;;;;;;10268552;28;20084;-55
2022/03/09 00:17:02;;;;;;;25.10;18.25;;;;;;;;;;10268792;28;20426;-54
2022/03/09 00:22:02;;;;;;;23.45;18.27;;;;;;;;;;10268204;28;20079;-47
2022/03/09 00:27:00;;;;;;;25.58;19.05;;;;;;;;;;10272632;28;20075;-54
2022/03/09 00:32:02;;;;;;;26.88;19.08;;;;;;;;;;10273165;28;20084;-52
2022/03/09 00:37:04;;;;;;;31.77;21.58;;;;;;;;;;10272383;28;20073;-55
2022/03/09 00:42:04;;;;;;;30.60;20.15;;;;;;;;;;10268193;28;20445;-53
2022/03/09 00:47:05;;;;;;;28.83;19.92;;;;;;;;;;10268262;28;20116;-53
2022/03/09 00:52:05;;;;;;;32.25;20.90;;;;;;;;;;10267770;28;20367;-56
2022/03/09 00:57:03;;;;;;;29.83;22.35;;;;;;;;;;10266899;28;20088;-53
2022/03/09 01:02:02;;;;;;;27.90;19.60;;;;;;;;;;10267553;28;20085;-55
2022/03/09 01:07:00;;;;;;;26.73;18.73;;;;;;;;;;10268018;28;20073;-54
2022/03/09 01:12:00;;;;;;;31.23;21.58;;;;;;;;;;10271217;28;20049;-54
2022/03/09 01:16:58;;;;;;;34.05;23.77;;;;;;;;;;10272980;28;20037;-53
2022/03/09 01:21:57;;;;;;;27.52;19.33;;;;;;;;;;10268772;28;20041;-55
2022/03/09 01:26:55;;;;;;;32.00;23.88;;;;;;;;;;10285997;28;20073;-54
2022/03/09 01:31:54;;;;;;;42.97;28.52;;;;;;;;;;10282669;28;20756;-54
2022/03/09 01:36:53;;;;;;;33.92;25.10;;;;;;;;;;10298522;28;20071;-54
2022/03/09 01:41:51;;;;;;;28.45;19.30;;;;;;;;;;10272652;28;20118;-55
2022/03/09 01:46:50;;;;;;;26.98;19.40;;;;;;;;;;10276986;28;20073;-53
2022/03/09 01:51:51;;;;;;;28.15;19.90;;;;;;;;;;10273800;28;20101;-55
2022/03/09 01:56:50;;;;;;;25.02;18.88;;;;;;;;;;10273502;28;20084;-51
2022/03/09 02:01:48;;;;;;;27.85;19.83;;;;;;;;;;10274047;28;20497;-54
2022/03/09 02:06:47;;;;;;;28.27;19.45;;;;;;;;;;10273923;28;20308;-54
2022/03/09 02:11:47;;;;;;;25.92;18.50;;;;;;;;;;10273703;28;20088;-51
2022/03/09 02:16:50;;;;;;;28.98;20.25;;;;;;;;;;10277529;28;20041;-51
2022/03/09 02:21:48;;;;;;;32.45;20.63;;;;;;;;;;10278457;28;20037;-54
2022/03/09 02:26:48;;;;;;;26.90;19.92;;;;;;;;;;10274269;28;20183;-54
2022/03/09 02:31:47;;;;;;;27.85;17.90;;;;;;;;;;10271981;28;20084;-54
2022/03/09 02:36:45;;;;;;;30.52;22.88;;;;;;;;;;10277057;28;20484;-54
2022/03/09 02:41:43;;;;;;;72.13;42.08;;;;;;;;;;10277814;28;20461;-54
2022/03/09 02:46:43;;;;;;;52.03;32.33;;;;;;;;;;10273532;28;20081;-53
2022/03/09 02:51:41;;;;;;;37.83;26.25;;;;;;;;;;10269039;28;20083;-53
2022/03/09 02:56:40;;;;;;;28.00;20.35;;;;;;;;;;10272053;28;20071;-53
2022/03/09 03:01:38;;;;;;;29.85;20.75;;;;;;;;;;10282173;28;20064;-55
2022/03/09 03:06:38;;;;;;;28.83;20.80;;;;;;;;;;10270644;28;20089;-53
2022/03/09 03:11:36;;;;;;;27.90;21.35;;;;;;;;;;10271204;28;20088;-53
2022/03/09 03:16:35;;;;;;;40.60;28.02;;;;;;;;;;10269780;28;20076;-54
2022/03/09 03:21:34;;;;;;;30.15;21.08;;;;;;;;;;10269317;28;20076;-53
2022/03/09 03:26:34;;;;;;;30.23;22.02;;;;;;;;;;10271753;28;20083;-47
2022/03/09 03:31:33;;;;;;;31.40;21.45;;;;;;;;;;10271711;28;20057;-55
2022/03/09 03:36:31;;;;;;;33.00;21.88;;;;;;;;;;10268367;28;20091;-54
2022/03/09 03:41:30;;;;;;;30.38;21.75;;;;;;;;;;10270960;28;20123;-54
2022/03/09 03:46:29;;;;;;;32.15;22.80;;;;;;;;;;10271829;28;20072;-54
2022/03/09 03:51:28;;;;;;;35.42;22.80;;;;;;;;;;10273681;28;20084;-54
2022/03/09 03:56:27;;;;;;;36.35;25.23;;;;;;;;;;10272519;28;20064;-51
2022/03/09 04:01:30;;;;;;;35.50;23.95;;;;;;;;;;10268881;28;20139;-53
2022/03/09 04:06:31;;;;;;;33.78;22.30;;;;;;;;;;10271987;28;20522;-54
2022/03/09 04:11:31;;;;;;;50.13;32.65;;;;;;;;;;10274170;28;20103;-54
2022/03/09 04:16:34;;;;;;;66.45;41.15;;;;;;;;;;10274266;28;20093;-55
2022/03/09 04:21:34;;;;;;;85.88;46.90;;;;;;;;;;10271592;28;20053;-53
2022/03/09 04:26:35;;;;;;;44.30;31.02;;;;;;;;;;10266461;28;20099;-54
2022/03/09 04:31:38;;;;;;;49.00;33.05;;;;;;;;;;10266289;28;20083;-53
2022/03/09 04:36:39;;;;;;;41.05;30.35;;;;;;;;;;10267485;28;20068;-54
2022/03/09 04:41:39;;;;;;;46.67;32.92;;;;;;;;;;10266343;28;20079;-54
2022/03/09 04:46:39;;;;;;;51.13;33.58;;;;;;;;;;10266602;28;20072;-55
2022/03/09 04:51:37;;;;;;;51.50;33.83;;;;;;;;;;10267554;28;20087;-56
2022/03/09 04:56:36;;;;;;;58.50;37.70;;;;;;;;;;10262042;28;20076;-55
2022/03/09 05:01:34;;;;;;;50.70;34.70;;;;;;;;;;10266357;28;20065;-56
2022/03/09 05:06:34;;;;;;;45.78;30.95;;;;;;;;;;10263623;28;20076;-54
2022/03/09 05:11:32;;;;;;;49.15;31.67;;;;;;;;;;10256514;28;20091;-56
2022/03/09 05:16:30;;;;;;;46.30;33.25;;;;;;;;;;10260796;28;20077;-53
2022/03/09 05:21:29;;;;;;;55.50;35.40;;;;;;;;;;10264124;28;20071;-54
2022/03/09 05:26:28;;;;;;;55.00;35.80;;;;;;;;;;10274843;28;20073;-52
2022/03/09 05:31:27;;;;;;;62.55;42.95;;;;;;;;;;10259520;28;20060;-49
2022/03/09 05:36:26;;;;;;;57.25;37.53;;;;;;;;;;10269013;28;20497;-54
2022/03/09 05:41:24;;;;;;;53.85;35.17;;;;;;;;;;10269657;28;20453;-53
2022/03/09 05:46:24;;;;;;;56.20;34.92;;;;;;;;;;10266924;28;20545;-51
2022/03/09 05:51:22;;;;;;;57.45;36.75;;;;;;;;;;10268672;28;20446;-53
2022/03/09 05:56:21;;;;;;;55.08;37.17;;;;;;;;;;10267979;28;20065;-56
2022/03/09 06:01:20;;;;;;;65.85;42.08;;;;;;;;;;10260682;28;20079;-56
2022/03/09 06:06:20;;;;;;;55.97;35.45;;;;;;;;;;10257323;28;20076;-51
2022/03/09 06:11:20;;;;;;;57.58;35.97;;;;;;;;;;10267746;28;20073;-54
2022/03/09 06:16:20;;;;;;;50.67;32.28;;;;;;;;;;10265629;28;20037;-55
2022/03/09 06:21:18;;;;;;;114.80;52.65;;;;;;;;;;10278894;28;20090;-51
2022/03/09 06:26:18;;;;;;;61.88;40.42;;;;;;;;;;10274769;28;20087;-56
2022/03/09 06:31:16;;;;;;;83.00;53.20;;;;;;;;;;10269725;28;20075;-55
2022/03/09 06:36:16;;;;;;;61.78;37.83;;;;;;;;;;10285124;28;20501;-55
2022/03/09 06:41:14;;;;;;;76.40;48.97;;;;;;;;;;10275556;28;20080;-55
2022/03/09 06:46:14;;;;;;;107.32;61.03;;;;;;;;;;10265037;28;20091;-54
2022/03/09 06:51:12;;;;;;;82.65;43.80;;;;;;;;;;10273101;28;20546;-55
2022/03/09 06:56:10;;;;;;;215.93;111.60;;;;;;;;;;10270305;28;20073;-55
2022/03/09 07:01:08;;;;;;;73.78;45.60;;;;;;;;;;10262700;28;20072;-56
2022/03/09 07:06:08;;;;;;;61.00;41.58;;;;;;;;;;10268613;28;20076;-52
2022/03/09 07:11:08;;;;;;;73.43;46.97;;;;;;;;;;10261317;28;20073;-57
2022/03/09 07:16:07;;;;;;;109.70;70.43;;;;;;;;;;10275745;28;20060;-56
2022/03/09 07:21:07;;;;;;;65.88;42.47;;;;;;;;;;10252488;28;20064;-53
2022/03/09 07:26:06;;;;;;;65.32;40.55;;;;;;;;;;10269073;28;20522;-57
2022/03/09 07:31:06;;;;;;;65.78;42.53;;;;;;;;;;10259178;28;20077;-55
2022/03/09 07:36:05;;;;;;;92.55;58.97;;;;;;;;;;10265030;28;20068;-55
2022/03/09 07:41:04;;;;;;;210.82;82.55;;;;;;;;;;10264174;28;20412;-54
2022/03/09 07:46:04;;;;;;;77.97;46.22;;;;;;;;;;10264215;28;20084;-55
2022/03/09 07:51:03;;;;;;;229.68;113.15;;;;;;;;;;10260664;28;20075;-56
2022/03/09 07:56:01;;;;;;;112.50;64.88;;;;;;;;;;10264178;28;20064;-54
2022/03/09 08:01:00;;;;;;;168.32;77.80;;;;;;;;;;10265640;28;20140;-56
2022/03/09 08:06:00;;;;;;;393.02;140.48;;;;;;;;;;10260482;28;20506;-52
2022/03/09 08:10:59;;;;;;;91.88;47.90;;;;;;;;;;10264282;28;20060;-55
2022/03/09 08:15:57;;;;;;;52.85;35.30;;;;;;;;;;10261495;28;20072;-56
2022/03/09 08:20:56;;;;;;;91.22;48.47;;;;;;;;;;10265394;28;20057;-56
2022/03/09 08:25:55;;;;;;;111.35;57.15;;;;;;;;;;10266427;28;20110;-57
2022/03/09 08:30:54;;;;;;;65.85;40.92;;;;;;;;;;10263478;28;20527;-55
2022/03/09 08:35:53;;;;;;;86.53;53.45;;;;;;;;;;10262234;28;20076;-55
2022/03/09 08:40:51;;;;;;;54.22;35.53;;;;;;;;;;10263715;28;20533;-53
2022/03/09 08:45:51;;;;;;;56.38;33.92;;;;;;;;;;10264447;28;20080;-54
2022/03/09 08:50:49;;;;;;;59.05;40.25;;;;;;;;;;10273881;28;20077;-55
2022/03/09 08:55:49;;;;;;;69.75;43.83;;;;;;;;;;10276727;28;20053;-56
2022/03/09 09:00:48;;;;;;;61.90;41.33;;;;;;;;;;10275594;28;20077;-57
2022/03/09 09:05:47;;;;;;;63.03;40.17;;;;;;;;;;10275362;28;20073;-56
2022/03/09 09:10:46;;;;;;;68.28;39.40;;;;;;;;;;10276190;28;20045;-57
2022/03/09 09:15:44;;;;;;;59.55;36.45;;;;;;;;;;10280371;28;20085;-56
2022/03/09 09:20:42;;;;;;;38.10;25.55;;;;;;;;;;10280745;28;20073;-54
2022/03/09 09:25:42;;;;;;;35.28;20.85;;;;;;;;;;10281049;28;20072;-56
2022/03/09 09:30:41;;;;;;;18.98;14.23;;;;;;;;;;10274653;28;20072;-57
2022/03/09 09:35:39;;;;;;;21.05;15.30;;;;;;;;;;10275377;28;20075;-54
2022/03/09 09:40:43;;;;;;;31.02;19.20;;;;;;;;;;10275018;28;20071;-55
2022/03/09 09:45:43;;;;;;;18.63;14.00;;;;;;;;;;10274198;28;20080;-52
2022/03/09 09:50:42;;;;;;;15.52;11.95;;;;;;;;;;10274756;28;20095;-56
2022/03/09 09:55:42;;;;;;;7.65;6.38;;;;;;;;;;10275003;28;20437;-56
2022/03/09 10:00:40;;;;;;;10.32;6.68;;;;;;;;;;10273312;28;20498;-55
2022/03/09 10:05:40;;;;;;;7.88;7.05;;;;;;;;;;10273676;28;20426;-55
2022/03/09 10:10:39;;;;;;;9.93;8.60;;;;;;;;;;10273969;28;20506;-55
2022/03/09 10:15:38;;;;;;;13.45;11.98;;;;;;;;;;10270237;28;20075;-56
2022/03/09 10:20:37;;;;;;;13.43;10.52;;;;;;;;;;10270432;28;20064;-56
2022/03/09 10:25:38;;;;;;;10.43;7.15;;;;;;;;;;10270976;28;20079;-56
2022/03/09 10:30:42;;;;;;;15.38;10.57;;;;;;;;;;10273099;28;20477;-57
2022/03/09 10:35:44;;;;;;;10.57;7.78;;;;;;;;;;10272194;28;20068;-55
2022/03/09 10:40:44;;;;;;;14.27;9.95;;;;;;;;;;10266097;28;20482;-56
2022/03/09 10:45:59;;;;;;;13.52;10.73;;;;;;;;;;10266979;28;20104;-54
2022/03/09 10:50:58;;;;;;;9.85;7.43;;;;;;;;;;10269664;28;20096;-56
2022/03/09 10:56:00;;;;;;;9.10;7.68;;;;;;;;;;10270606;28;20068;-55
2022/03/09 11:00:58;;;;;;;16.70;9.75;;;;;;;;;;10265912;28;20068;-55
2022/03/09 11:05:57;;;;;;;12.85;10.15;;;;;;;;;;10271275;28;20065;-56
2022/03/09 11:10:58;;;;;;;13.90;8.32;;;;;;;;;;10258212;28;20076;-53
2022/03/09 11:15:57;;;;;;;18.02;13.10;;;;;;;;;;10274739;28;20045;-54
2022/03/09 11:20:57;;;;;;;16.27;11.60;;;;;;;;;;10270209;28;20068;-55
2022/03/09 11:25:57;;;;;;;16.02;10.25;;;;;;;;;;10265494;28;20099;-55
2022/03/09 11:30:56;;;;;;;12.70;8.95;;;;;;;;;;10267717;28;20091;-53
2022/03/09 11:35:55;;;;;;;13.40;10.05;;;;;;;;;;10262972;28;20072;-55
2022/03/09 11:41:12;;;;;;;14.73;11.23;;;;;;;;;;10271572;28;20068;-62
2022/03/09 11:46:10;;;;;;;15.68;9.93;;;;;;;;;;10269880;28;20053;-50
2022/03/09 11:51:12;;;;;;;12.45;9.95;;;;;;;;;;10262596;28;20077;-53
2022/03/09 11:56:28;;;;;;;8.20;7.40;;;;;;;;;;10262149;28;20458;-51
2022/03/09 12:01:26;;;;;;;10.65;8.48;;;;;;;;;;10262152;28;20434;-56
2022/03/09 12:06:39;;;;;;;14.63;10.35;;;;;;;;;;10262029;28;20068;-55
2022/03/09 12:11:52;;;;;;;13.25;10.93;;;;;;;;;;10265046;28;20471;-56
2022/03/09 12:17:02;;;;;;;11.07;8.15;;;;;;;;;;10266342;28;20076;-54
2022/03/09 12:22:02;;;;;;;7.70;6.40;;;;;;;;;;10269445;28;20081;-56
2022/03/09 12:27:01;;;;;;;8.05;6.30;;;;;;;;;;10273442;28;20079;-56
2022/03/09 12:32:05;;;;;;;18.58;12.48;;;;;;;;;;10266085;28;20505;-56
2022/03/09 12:37:04;;;;;;;7.50;6.63;;;;;;;;;;10271966;28;20071;-56
2022/03/09 12:42:04;;;;;;;11.20;7.65;;;;;;;;;;10267111;28;20334;-56
2022/03/09 12:47:05;;;;;;;12.57;8.32;;;;;;;;;;10268298;28;20037;-55
2022/03/09 12:52:06;;;;;;;9.82;7.50;;;;;;;;;;10273273;28;20092;-56
2022/03/09 12:57:09;;;;;;;30.15;18.10;;;;;;;;;;10264944;28;20077;-56
2022/03/09 13:02:08;;;;;;;16.10;11.02;;;;;;;;;;10265635;28;20491;-56
2022/03/09 13:07:11;;;;;;;20.13;11.65;;;;;;;;;;10272062;28;20346;-55
2022/03/09 13:12:10;;;;;;;16.30;11.70;;;;;;;;;;10270791;28;20087;-56
2022/03/09 13:17:11;;;;;;;15.38;10.73;;;;;;;;;;10265880;28;20072;-55
2022/03/09 13:22:09;;;;;;;18.58;12.60;;;;;;;;;;10271306;28;20064;-56
2022/03/09 13:27:16;;;;;;;16.65;11.55;;;;;;;;;;10270138;28;20069;-55
2022/03/09 13:32:30;;;;;;;15.27;13.48;;;;;;;;;;10266370;28;20073;-56
2022/03/09 13:37:35;;;;;;;15.13;11.98;;;;;;;;;;10271109;28;20083;-56
2022/03/09 13:42:35;;;;;;;;;;;;;;;;;;10272141;28;20069;-56
2022/03/09 13:47:52;;;;;;;14.88;10.82;;;;;;;;;;10270379;28;20342;-54
2022/03/09 13:52:51;;;;;;;12.52;8.50;;;;;;;;;;10270358;28;20101;-56
2022/03/09 13:57:58;;;;;;;16.13;13.38;;;;;;;;;;10265470;28;20072;-56
2022/03/09 14:03:06;;;;;;;30.17;26.42;;;;;;;;;;10268276;28;20064;-58
2022/03/09 14:08:05;;;;;;;8.88;7.05;;;;;;;;;;10273818;28;20079;-56
2022/03/09 14:13:09;;;;;;;13.48;11.23;;;;;;;;;;10266053;28;20089;-51
2022/03/09 14:18:09;;;;;;;56.38;29.83;;;;;;;;;;10276063;28;20072;-55
2022/03/09 14:23:12;;;;;;;10.35;7.85;;;;;;;;;;10275530;28;20077;-56
2022/03/09 14:28:10;;;;;;;9.38;7.95;;;;;;;;;;10276195;28;20459;-55
2022/03/09 14:33:12;;;;;;;18.42;12.25;;;;;;;;;;10269663;28;20494;-54
2022/03/09 14:38:12;;;;;;;21.33;14.88;;;;;;;;;;10274379;28;20076;-55
2022/03/09 14:43:10;;;;;;;10.70;9.02;;;;;;;;;;10276118;28;20072;-56
2022/03/09 14:48:09;;;;;;;13.32;10.57;;;;;;;;;;10268910;28;20071;-56
2022/03/09 14:53:10;;;;;;;6.60;5.95;;;;;;;;;;10260761;28;20091;-55
2022/03/09 14:58:08;;;;;;;16.95;12.30;;;;;;;;;;10259364;28;20481;-56
2022/03/09 15:03:07;;;;;;;38.30;18.10;;;;;;;;;;10284609;28;20068;-56
2022/03/09 15:08:05;;;;;;;12.23;9.15;;;;;;;;;;10270843;28;20079;-56
2022/03/09 15:13:05;;;;;;;16.52;9.00;;;;;;;;;;10266311;28;20145;-56
2022/03/09 15:18:03;;;;;;;20.27;14.25;;;;;;;;;;10265289;28;20683;-55
2022/03/09 15:23:02;;;;;;;24.75;16.88;;;;;;;;;;10267023;28;20069;-56
2022/03/09 15:28:03;;;;;;;32.10;22.15;;;;;;;;;;10269335;28;20080;-56
2022/03/09 15:33:02;;;;;;;24.00;14.40;;;;;;;;;;10268629;28;20077;-54
2022/03/09 15:38:01;;;;;;;54.70;30.42;;;;;;;;;;10268845;28;20076;-56
2022/03/09 15:42:59;;;;;;;37.70;23.10;;;;;;;;;;10274191;28;20077;-56
2022/03/09 15:47:57;;;;;;;21.02;13.18;;;;;;;;;;10269554;28;20281;-55
2022/03/09 15:52:58;;;;;;;22.73;15.82;;;;;;;;;;10269087;28;20073;-57
2022/03/09 15:57:56;;;;;;;33.60;24.75;;;;;;;;;;10264883;28;20072;-57
2022/03/09 16:02:54;;;;;;;34.78;26.85;;;;;;;;;;10266931;28;20494;-56
2022/03/09 16:07:53;;;;;;;37.67;27.48;;;;;;;;;;10257256;28;20414;-57
2022/03/09 16:12:54;;;;;;;30.02;23.73;;;;;;;;;;10263420;28;20563;-57
2022/03/09 16:17:52;;;;;;;33.70;22.27;;;;;;;;;;10260247;28;20060;-57
2022/03/09 16:22:52;;;;;;;146.20;75.47;;;;;;;;;;10265303;28;20067;-56
2022/03/09 16:27:50;;;;;;;88.35;57.03;;;;;;;;;;10260998;28;20065;-56
2022/03/09 16:32:50;;;;;;;91.50;59.97;;;;;;;;;;10260317;28;20126;-56
2022/03/09 16:37:48;;;;;;;97.75;59.75;;;;;;;;;;10263362;28;20073;-57
2022/03/09 16:42:48;;;;;;;94.55;55.08;;;;;;;;;;10262533;28;20521;-56
2022/03/09 16:47:47;;;;;;;62.53;42.38;;;;;;;;;;10260795;28;20076;-54
2022/03/09 16:52:46;;;;;;;55.90;40.35;;;;;;;;;;10275236;28;20128;-55
2022/03/09 16:57:45;;;;;;;61.45;42.42;;;;;;;;;;10289364;28;20052;-56
2022/03/09 17:02:43;;;;;;;66.60;40.05;;;;;;;;;;10263140;28;20075;-56
2022/03/09 17:07:42;;;;;;;66.10;44.55;;;;;;;;;;10261080;28;20483;-56
2022/03/09 17:12:41;;;;;;;62.70;41.70;;;;;;;;;;10268857;28;20080;-55
2022/03/09 17:17:40;;;;;;;90.28;58.55;;;;;;;;;;10261428;28;20068;-55
2022/03/09 17:22:38;;;;;;;100.63;60.83;;;;;;;;;;10261264;28;20080;-54
2022/03/09 17:27:37;;;;;;;109.07;65.88;;;;;;;;;;10258714;28;20072;-53
2022/03/09 17:32:38;;;;;;;103.60;61.95;;;;;;;;;;10302416;28;20091;-56
2022/03/09 17:37:37;;;;;;;149.13;88.53;;;;;;;;;;10317591;28;20088;-54
2022/03/09 17:42:35;;;;;;;157.88;97.70;;;;;;;;;;10296145;28;20518;-51
2022/03/09 17:47:35;;;;;;;146.45;90.68;;;;;;;;;;10284286;28;20091;-54
2022/03/09 17:52:38;;;;;;;141.10;88.95;;;;;;;;;;10284982;28;20084;-52
2022/03/09 17:57:38;;;;;;;137.32;84.75;;;;;;;;;;10274135;28;20057;-54
2022/03/09 18:02:39;;;;;;;114.32;68.22;;;;;;;;;;10282485;28;20073;-56
2022/03/09 18:07:39;;;;;;;143.98;79.60;;;;;;;;;;10278238;28;20037;-55
2022/03/09 18:12:37;;;;;;;129.57;81.07;;;;;;;;;;10277904;28;20080;-56
2022/03/09 18:17:35;;;;;;;162.45;98.30;;;;;;;;;;10278407;28;20051;-56
2022/03/09 18:22:34;;;;;;;130.00;76.82;;;;;;;;;;10277352;28;20076;-54
2022/03/09 18:27:36;;;;;;;128.38;75.80;;;;;;;;;;10270091;28;20069;-56
2022/03/09 18:32:34;;;;;;;129.88;77.00;;;;;;;;;;10281553;28;20471;-56
2022/03/09 18:37:32;;;;;;;82.60;50.88;;;;;;;;;;10272590;28;20076;-54
2022/03/09 18:42:31;;;;;;;84.60;50.50;;;;;;;;;;10284274;28;20075;-56
2022/03/09 18:47:30;;;;;;;85.15;58.78;;;;;;;;;;10263855;28;20075;-52
2022/03/09 18:52:28;;;;;;;83.07;52.55;;;;;;;;;;10261846;28;20081;-56
2022/03/09 18:57:27;;;;;;;80.40;48.92;;;;;;;;;;10273533;28;20048;-56
2022/03/09 19:02:25;;;;;;;80.88;48.17;;;;;;;;;;10269450;28;20514;-55
2022/03/09 19:07:26;;;;;;;115.75;74.22;;;;;;;;;;10270922;28;20087;-54
2022/03/09 19:12:24;;;;;;;93.65;59.35;;;;;;;;;;10263245;28;20076;-55
2022/03/09 19:17:22;;;;;;;98.97;62.75;;;;;;;;;;10270407;28;20076;-55
2022/03/09 19:22:20;;;;;;;72.80;46.53;;;;;;;;;;10260153;28;20271;-55
2022/03/09 19:27:20;;;;;;;70.07;40.72;;;;;;;;;;10268528;28;20041;-57
2022/03/09 19:32:19;;;;;;;55.60;33.47;;;;;;;;;;10256630;28;20071;-57
2022/03/09 19:37:18;;;;;;;53.78;33.08;;;;;;;;;;10255581;28;20056;-54
2022/03/09 19:42:16;;;;;;;66.75;40.13;;;;;;;;;;10259713;28;20065;-55
2022/03/09 19:47:15;;;;;;;62.40;34.92;;;;;;;;;;10240939;28;20065;-53
2022/03/09 19:52:18;;;;;;;78.05;45.53;;;;;;;;;;10248224;28;20072;-58
2022/03/09 19:57:16;;;;;;;57.70;30.77;;;;;;;;;;10271116;28;20069;-56
2022/03/09 20:02:16;;;;;;;54.58;34.63;;;;;;;;;;10285596;28;20524;-55
2022/03/09 20:07:14;;;;;;;35.80;23.27;;;;;;;;;;10268443;28;20083;-54
2022/03/09 20:12:13;;;;;;;41.00;25.27;;;;;;;;;;10257210;28;20077;-53
2022/03/09 20:17:11;;;;;;;44.97;26.35;;;;;;;;;;10265654;28;20069;-51
2022/03/09 20:22:11;;;;;;;51.80;29.88;;;;;;;;;;10251852;28;20087;-56
2022/03/09 20:27:09;;;;;;;56.05;33.95;;;;;;;;;;10270763;28;20069;-56
2022/03/09 20:32:07;;;;;;;71.53;38.70;;;;;;;;;;10271840;28;20108;-56
2022/03/09 20:37:06;;;;;;;68.28;39.33;;;;;;;;;;10268626;28;20048;-57
2022/03/09 20:42:06;;;;;;;35.10;22.58;;;;;;;;;;10266410;28;20451;-56
2022/03/09 20:47:04;;;;;;;46.78;25.65;;;;;;;;;;10266143;28;20076;-57
2022/03/09 20:52:08;;;;;;;58.85;31.50;;;;;;;;;;10312099;28;20093;-58
2022/03/09 20:57:08;;;;;;;61.80;27.17;;;;;;;;;;10311819;28;20186;-57
2022/03/09 21:02:08;;;;;;;50.95;22.58;;;;;;;;;;10312192;28;20078;-56
2022/03/09 21:07:07;;;;;;;82.57;36.38;;;;;;;;;;10298518;28;20517;-58
2022/03/09 21:12:05;;;;;;;84.28;36.80;;;;;;;;;;10267914;28;20083;-57
2022/03/09 21:17:06;;;;;;;86.45;41.45;;;;;;;;;;10266676;28;20085;-54
2022/03/09 21:22:07;;;;;;;88.22;47.45;;;;;;;;;;10261099;28;20541;-55
2022/03/09 21:27:07;;;;;;;71.15;41.10;;;;;;;;;;10260482;28;20069;-55
2022/03/09 21:32:07;;;;;;;30.17;22.10;;;;;;;;;;10256543;28;20076;-57
2022/03/09 21:37:06;;;;;;;59.60;35.35;;;;;;;;;;10267482;28;20069;-55
2022/03/09 21:42:04;;;;;;;62.15;36.97;;;;;;;;;;10270502;28;20068;-57
2022/03/09 21:47:02;;;;;;;63.75;36.53;;;;;;;;;;10269803;28;20080;-56
2022/03/09 21:52:02;;;;;;;62.78;40.90;;;;;;;;;;10260334;28;20080;-56
2022/03/09 21:57:01;;;;;;;70.65;42.50;;;;;;;;;;10263863;28;20502;-57
2022/03/09 22:01:59;;;;;;;52.17;31.23;;;;;;;;;;10258505;28;20076;-53
2022/03/09 22:06:57;;;;;;;63.88;32.55;;;;;;;;;;10276872;28;20662;-55
2022/03/09 22:11:57;;;;;;;65.10;37.40;;;;;;;;;;10278932;28;20087;-56
2022/03/09 22:16:55;;;;;;;66.15;36.00;;;;;;;;;;10271013;28;20073;-56
2022/03/09 22:21:54;;;;;;;62.78;34.17;;;;;;;;;;10278562;28;20463;-56
2022/03/09 22:26:52;;;;;;;169.07;86.60;;;;;;;;;;10273546;28;20558;-56
2022/03/09 22:31:52;;;;;;;108.35;56.92;;;;;;;;;;10271416;28;20072;-56
2022/03/09 22:36:50;;;;;;;109.72;51.05;;;;;;;;;;10276325;28;20514;-57
2022/03/09 22:42:09;;;;;;;109.53;54.85;;;;;;;;;;10277784;28;20422;-55
2022/03/09 22:47:08;;;;;;;124.97;60.55;;;;;;;;;;10276346;28;20068;-56
2022/03/09 22:52:07;;;;;;;99.97;52.03;;;;;;;;;;10272225;28;21108;-57
2022/03/09 22:57:06;;;;;;;76.05;42.90;;;;;;;;;;10285738;28;20514;-56
2022/03/09 23:02:04;;;;;;;55.95;34.47;;;;;;;;;;10287796;28;20611;-56
2022/03/09 23:07:05;;;;;;;56.20;32.58;;;;;;;;;;10270811;28;20459;-57
2022/03/09 23:12:03;;;;;;;33.38;22.38;;;;;;;;;;10276176;28;20489;-57
2022/03/09 23:17:03;;;;;;;31.02;22.35;;;;;;;;;;10276687;28;20076;-56
2022/03/09 23:22:01;;;;;;;36.63;24.65;;;;;;;;;;10271359;28;20084;-56
2022/03/09 23:27:01;;;;;;;45.08;27.98;;;;;;;;;;10262930;28;20068;-55
2022/03/09 23:32:00;;;;;;;73.55;36.90;;;;;;;;;;10271025;28;20451;-56
2022/03/09 23:37:00;;;;;;;91.13;39.67;;;;;;;;;;10269490;28;20514;-57
2022/03/09 23:42:02;;;;;;;80.38;39.10;;;;;;;;;;10269920;28;20072;-56
2022/03/09 23:47:03;;;;;;;391.52;177.60;;;;;;;;;;10272727;28;20164;-57
2022/03/09 23:52:04;;;;;;;224.57;114.05;;;;;;;;;;10271120;28;20099;-55
2022/03/09 23:57:06;;;;;;;124.90;68.95;;;;;;;;;;10275086;28;20072;-57
